Time;durP1;ratioP1;P1;durP2;ratioP2;P2;SDS_P1;SDS_P2;PMS_P1;PMS_P2;Temp;Humidity;BMP_temperature;BMP_pressure;BME280_temperature;BME280_humidity;BME280_pressure;Samples;Min_cycle;Max_cycle;Signal;HPM_P1;HPM_P2
2023/05/17 00:00:01;;;;;;;19.15;7.13;;;;;;;11.66;100.00;100162.50;4869908;29;20161;-81
2023/05/17 00:02:45;;;;;;;18.05;7.40;;;;;;;11.83;100.00;100168.50;4874121;29;20391;-81
2023/05/17 00:05:29;;;;;;;20.73;7.45;;;;;;;11.73;100.00;100172.34;4866585;29;20055;-81
2023/05/17 00:08:13;;;;;;;22.48;7.82;;;;;;;11.57;100.00;100172.25;4867789;29;20091;-81
2023/05/17 00:10:57;;;;;;;16.83;7.00;;;;;;;11.73;100.00;100160.00;4868214;29;20125;-82
2023/05/17 00:13:41;;;;;;;16.73;8.63;;;;;;;11.69;100.00;100175.34;4866725;29;20052;-81
2023/05/17 00:16:25;;;;;;;18.13;7.70;;;;;;;11.51;100.00;100169.53;4871339;29;20199;-81
2023/05/17 00:19:09;;;;;;;12.32;7.60;;;;;;;11.56;100.00;100173.25;4866640;29;20040;-81
2023/05/17 00:21:53;;;;;;;16.02;7.78;;;;;;;11.55;100.00;100176.88;4866916;29;20096;-80
2023/05/17 00:24:37;;;;;;;23.75;8.52;;;;;;;11.23;100.00;100173.44;4864245;29;20059;-81
2023/05/17 00:27:21;;;;;;;19.75;8.15;;;;;;;11.50;100.00;100175.78;4868551;29;20085;-81
2023/05/17 00:30:06;;;;;;;20.40;9.63;;;;;;;11.41;100.00;100170.53;4871710;29;20118;-82
2023/05/17 00:32:50;;;;;;;17.20;8.25;;;;;;;11.32;100.00;100170.75;4868399;29;20239;-81
2023/05/17 00:35:34;;;;;;;20.02;9.35;;;;;;;11.39;100.00;100172.53;4867781;29;20067;-80
2023/05/17 00:38:18;;;;;;;18.45;8.10;;;;;;;11.27;100.00;100166.81;4866970;29;20392;-80
2023/05/17 00:41:02;;;;;;;16.90;7.57;;;;;;;11.31;100.00;100169.09;4869512;29;20047;-81
2023/05/17 00:43:46;;;;;;;20.25;8.05;;;;;;;11.37;100.00;100174.50;4868268;29;20456;-81
2023/05/17 00:46:32;;;;;;;;;;;;;;;11.36;100.00;100172.88;4866455;29;20043;-81
2023/05/17 00:49:16;;;;;;;20.50;8.27;;;;;;;11.24;100.00;100159.28;4870627;29;19926;-81
2023/05/17 00:52:01;;;;;;;15.18;8.68;;;;;;;11.09;100.00;100166.25;4868140;29;20424;-80
2023/05/17 00:54:45;;;;;;;18.65;8.38;;;;;;;11.12;100.00;100171.16;4869580;29;20044;-80
2023/05/17 00:57:30;;;;;;;30.65;9.95;;;;;;;10.90;100.00;100168.28;4870667;29;20067;-80
2023/05/17 01:00:15;;;;;;;20.27;9.88;;;;;;;11.10;100.00;100173.13;4871086;29;20071;-80
2023/05/17 01:02:59;;;;;;;21.08;9.32;;;;;;;11.06;100.00;100171.84;4863400;29;20047;-80
2023/05/17 01:05:44;;;;;;;19.10;9.27;;;;;;;11.28;100.00;100165.84;4867954;29;20048;-81
2023/05/17 01:08:29;;;;;;;22.80;9.80;;;;;;;11.40;100.00;100183.88;4873479;29;20059;-79
2023/05/17 01:11:13;;;;;;;19.33;9.77;;;;;;;11.35;100.00;100180.91;4867710;29;20109;-80
2023/05/17 01:14:23;;;;;;;25.90;10.40;;;;;;;11.24;100.00;100185.56;4864163;29;20047;-79
2023/05/17 01:17:32;;;;;;;21.48;10.48;;;;;;;11.20;100.00;100179.03;4866110;29;20048;-79
2023/05/17 01:20:18;;;;;;;30.75;11.48;;;;;;;11.17;100.00;100158.31;4871746;29;20089;-79
2023/05/17 01:23:21;;;;;;;25.10;12.18;;;;;;;11.21;100.00;100175.41;4867532;29;20093;-81
2023/05/17 01:26:27;;;;;;;22.27;11.00;;;;;;;10.95;100.00;100179.09;4865101;29;20124;-80
2023/05/17 01:29:15;;;;;;;21.80;11.07;;;;;;;10.97;100.00;100174.47;4866795;29;20060;-81
2023/05/17 01:32:02;;;;;;;24.35;11.13;;;;;;;11.14;100.00;100172.63;4871050;29;20056;-81
2023/05/17 01:34:46;;;;;;;23.50;11.25;;;;;;;11.03;100.00;100173.00;4866283;29;20475;-80
2023/05/17 01:37:30;;;;;;;26.63;12.38;;;;;;;11.04;100.00;100163.31;4863469;29;20175;-80
2023/05/17 01:40:16;;;;;;;32.08;11.05;;;;;;;11.22;100.00;100177.03;4861215;29;20057;-80
2023/05/17 01:43:13;;;;;;;25.98;11.90;;;;;;;11.20;100.00;100163.25;4866258;29;20096;-80
2023/05/17 01:46:26;;;;;;;23.80;12.02;;;;;;;11.02;100.00;100181.06;4868519;29;20067;-80
2023/05/17 01:49:20;;;;;;;24.63;10.95;;;;;;;11.06;100.00;100172.66;4867933;29;20510;-80
2023/05/17 01:52:27;;;;;;;25.55;11.68;;;;;;;11.29;100.00;100183.25;4870080;29;20100;-79
2023/05/17 01:55:48;;;;;;;26.42;11.07;;;;;;;11.30;100.00;100184.06;4869828;29;20555;-80
2023/05/17 01:58:39;;;;;;;26.60;11.45;;;;;;;11.32;100.00;100186.53;4869793;29;20077;-80
2023/05/17 02:01:27;;;;;;;28.67;12.18;;;;;;;11.25;100.00;100176.69;4862789;29;20085;-80
2023/05/17 02:04:11;;;;;;;20.13;11.52;;;;;;;11.17;100.00;100170.66;4863066;29;20451;-79
2023/05/17 02:06:55;;;;;;;25.23;12.00;;;;;;;11.23;100.00;100183.09;4870522;29;20444;-79
2023/05/17 02:09:39;;;;;;;21.95;12.35;;;;;;;11.18;100.00;100186.22;4868759;29;20121;-80
2023/05/17 02:12:24;;;;;;;29.30;12.85;;;;;;;11.12;100.00;100192.19;4864053;29;21829;-79
2023/05/17 02:15:10;;;;;;;22.88;12.48;;;;;;;11.05;100.00;100180.72;4867395;29;20048;-79
2023/05/17 02:17:55;;;;;;;26.42;12.73;;;;;;;10.80;100.00;100183.38;4868138;29;20456;-79
2023/05/17 02:20:40;;;;;;;29.27;13.10;;;;;;;10.98;100.00;100172.69;4866395;29;20571;-80
2023/05/17 02:23:24;;;;;;;23.65;12.95;;;;;;;10.98;100.00;100176.13;4868782;29;20060;-80
2023/05/17 02:26:08;;;;;;;22.98;12.45;;;;;;;11.03;100.00;100188.75;4867365;29;20515;-79
2023/05/17 02:28:52;;;;;;;27.73;13.43;;;;;;;11.04;100.00;100190.41;4875250;29;20068;-80
2023/05/17 02:31:36;;;;;;;34.08;13.65;;;;;;;11.05;100.00;100196.47;4869665;29;20080;-80
2023/05/17 02:34:20;;;;;;;26.17;12.75;;;;;;;10.98;100.00;100196.34;4872938;29;20048;-79
2023/05/17 02:37:04;;;;;;;30.40;13.82;;;;;;;10.92;100.00;100189.94;4868674;29;20407;-80
2023/05/17 02:39:48;;;;;;;24.40;12.63;;;;;;;10.95;100.00;100180.91;4871327;29;20053;-81
2023/05/17 02:42:32;;;;;;;31.27;14.48;;;;;;;10.98;100.00;100185.81;4871932;29;20396;-80
2023/05/17 02:45:17;;;;;;;29.67;14.30;;;;;;;10.97;100.00;100194.69;4868891;29;20044;-80
2023/05/17 02:48:01;;;;;;;28.02;13.25;;;;;;;10.86;100.00;100209.00;4872762;29;20068;-81
2023/05/17 02:50:45;;;;;;;26.48;12.48;;;;;;;10.98;100.00;100207.66;4873679;29;20105;-79
2023/05/17 02:53:29;;;;;;;25.35;12.73;;;;;;;11.02;100.00;100208.13;4872870;29;20043;-79
2023/05/17 02:56:13;;;;;;;27.50;12.63;;;;;;;10.95;100.00;100204.56;4872897;29;20043;-79
2023/05/17 02:59:00;;;;;;;26.95;11.65;;;;;;;11.03;100.00;100206.34;4870278;29;20040;-79
2023/05/17 03:01:44;;;;;;;25.08;11.98;;;;;;;11.00;100.00;100203.06;4865596;29;20087;-80
2023/05/17 03:04:28;;;;;;;30.33;13.10;;;;;;;10.97;100.00;100213.88;4871020;29;20049;-79
2023/05/17 03:07:12;;;;;;;27.63;12.50;;;;;;;10.92;100.00;100202.25;4864786;29;20129;-79
2023/05/17 03:09:56;;;;;;;21.02;12.20;;;;;;;11.15;100.00;100212.84;4869254;29;20095;-79
2023/05/17 03:12:40;;;;;;;29.35;13.32;;;;;;;11.12;100.00;100205.31;4870747;29;20060;-80
2023/05/17 03:15:28;;;;;;;19.40;11.85;;;;;;;11.33;100.00;100209.19;4872508;29;20048;-79
2023/05/17 03:18:12;;;;;;;30.35;12.90;;;;;;;11.36;100.00;100203.59;4869010;29;20071;-79
2023/05/17 03:20:56;;;;;;;34.33;13.85;;;;;;;11.27;100.00;100197.53;4869438;29;20534;-79
2023/05/17 03:23:40;;;;;;;26.55;12.25;;;;;;;11.31;100.00;100205.91;4863403;29;20088;-79
2023/05/17 03:26:24;;;;;;;25.13;11.98;;;;;;;11.31;100.00;100205.91;4868342;29;20519;-80
2023/05/17 03:29:08;;;;;;;24.67;11.02;;;;;;;11.41;100.00;100201.28;4871223;29;20528;-79
2023/05/17 03:31:52;;;;;;;28.65;12.73;;;;;;;11.48;100.00;100201.38;4871086;29;20048;-80
2023/05/17 03:34:36;;;;;;;25.80;12.13;;;;;;;11.43;100.00;100205.34;4863271;29;20114;-79
2023/05/17 03:37:20;;;;;;;23.73;11.27;;;;;;;11.57;100.00;100201.19;4869877;29;20044;-80
2023/05/17 03:40:05;;;;;;;23.23;11.65;;;;;;;11.57;100.00;100201.19;4866505;29;20049;-80
2023/05/17 03:42:50;;;;;;;30.20;11.48;;;;;;;11.52;100.00;100190.38;4869348;29;20051;-81
2023/05/17 03:45:34;;;;;;;33.83;12.05;;;;;;;11.42;100.00;100189.78;4871143;29;20147;-80
2023/05/17 03:48:18;;;;;;;21.88;11.85;;;;;;;11.46;100.00;100184.97;4868480;29;20096;-80
2023/05/17 03:51:02;;;;;;;23.63;11.77;;;;;;;11.48;100.00;100204.03;4871037;29;20104;-81
2023/05/17 03:53:46;;;;;;;26.15;11.18;;;;;;;11.38;100.00;100212.13;4868671;29;20445;-80
2023/05/17 03:56:31;;;;;;;27.23;12.82;;;;;;;11.24;100.00;100201.34;4870329;29;20051;-81
2023/05/17 03:59:15;;;;;;;32.83;13.60;;;;;;;11.39;100.00;100221.63;4874697;29;20484;-81
2023/05/17 04:02:00;;;;;;;30.52;13.55;;;;;;;11.42;100.00;100216.06;4866672;29;20097;-81
2023/05/17 04:04:51;;;;;;;30.65;14.35;;;;;;;11.43;100.00;100215.06;4871544;29;20271;-80
2023/05/17 04:07:35;;;;;;;34.78;15.13;;;;;;;11.10;100.00;100209.94;4868771;29;20059;-80
2023/05/17 04:10:19;;;;;;;33.28;14.55;;;;;;;11.05;100.00;100197.28;4867782;29;20091;-79
2023/05/17 04:13:03;;;;;;;32.88;14.00;;;;;;;11.10;100.00;100217.81;4876034;29;20072;-80
2023/05/17 04:15:47;;;;;;;37.53;14.80;;;;;;;11.05;100.00;100222.75;4875054;29;20075;-80
2023/05/17 04:18:35;;;;;;;27.38;13.85;;;;;;;11.10;100.00;100215.19;4866428;29;20057;-80
2023/05/17 04:21:20;;;;;;;30.27;14.43;;;;;;;11.22;100.00;100216.47;4872203;29;20553;-79
2023/05/17 04:24:04;;;;;;;29.83;14.80;;;;;;;11.31;100.00;100216.44;4870679;29;20051;-80
2023/05/17 04:26:48;;;;;;;34.20;15.02;;;;;;;11.33;100.00;100219.69;4866259;29;20084;-80
2023/05/17 04:29:32;;;;;;;31.65;15.45;;;;;;;11.37;100.00;100215.72;4862851;29;20113;-80
2023/05/17 04:32:16;;;;;;;28.67;15.00;;;;;;;11.43;100.00;100226.38;4868936;29;20519;-80
2023/05/17 04:35:01;;;;;;;32.65;14.95;;;;;;;11.62;100.00;100228.78;4873039;29;20059;-80
2023/05/17 04:37:45;;;;;;;30.42;15.15;;;;;;;11.70;100.00;100226.13;4868879;29;20052;-80
2023/05/17 04:40:29;;;;;;;26.55;13.85;;;;;;;11.68;100.00;100217.56;4868346;29;20063;-80
2023/05/17 04:43:13;;;;;;;27.83;13.68;;;;;;;11.69;100.00;100219.22;4861316;29;20067;-80
2023/05/17 04:45:58;;;;;;;24.73;12.90;;;;;;;11.53;100.00;100215.66;4873067;29;20052;-80
2023/05/17 04:48:42;;;;;;;34.67;14.40;;;;;;;11.60;100.00;100220.25;4859673;29;20782;-79
2023/05/17 04:51:26;;;;;;;24.65;12.65;;;;;;;11.57;100.00;100227.47;4868621;29;20190;-79
2023/05/17 04:54:10;;;;;;;23.83;12.30;;;;;;;11.69;100.00;100229.72;4869611;29;20084;-80
2023/05/17 04:56:55;;;;;;;23.08;11.75;;;;;;;11.57;100.00;100231.94;4867373;29;20117;-80
2023/05/17 04:59:39;;;;;;;26.55;12.02;;;;;;;11.65;100.00;100233.72;4870879;29;20193;-79
2023/05/17 05:02:23;;;;;;;26.00;11.50;;;;;;;11.79;100.00;100240.03;4866291;29;20116;-81
2023/05/17 05:05:10;;;;;;;25.58;11.98;;;;;;;11.90;100.00;100241.47;4866868;29;20523;-81
2023/05/17 05:07:55;;;;;;;25.50;10.90;;;;;;;12.02;100.00;100240.13;4869624;29;20498;-80
2023/05/17 05:10:39;;;;;;;26.20;11.23;;;;;;;12.13;100.00;100239.69;4863534;29;20480;-80
2023/05/17 05:13:23;;;;;;;26.15;10.43;;;;;;;12.21;100.00;100244.09;4867627;29;20190;-81
2023/05/17 05:16:07;;;;;;;18.65;10.32;;;;;;;12.36;100.00;100241.50;4868402;29;20116;-80
2023/05/17 05:18:51;;;;;;;20.27;9.02;;;;;;;12.43;100.00;100242.44;4869133;29;20495;-80
2023/05/17 05:21:35;;;;;;;20.27;9.50;;;;;;;12.53;100.00;100244.00;4867832;29;20072;-81
2023/05/17 05:24:19;;;;;;;29.70;9.65;;;;;;;12.59;100.00;100245.94;4863525;29;20552;-80
2023/05/17 05:27:03;;;;;;;22.88;8.65;;;;;;;12.83;100.00;100254.63;4863904;29;20040;-80
2023/05/17 05:29:47;;;;;;;20.92;8.93;;;;;;;12.77;100.00;100252.69;4864633;29;20069;-80
2023/05/17 05:32:31;;;;;;;24.38;8.73;;;;;;;12.74;100.00;100251.25;4872977;29;20048;-80
2023/05/17 05:35:16;;;;;;;21.73;8.77;;;;;;;12.70;100.00;100258.69;4866805;29;20093;-80
2023/05/17 05:38:02;;;;;;;25.25;9.65;;;;;;;12.71;100.00;100265.59;4868635;29;20052;-80
2023/05/17 05:40:47;;;;;;;22.15;9.02;;;;;;;13.16;100.00;100267.47;4867692;29;20056;-79
2023/05/17 05:43:30;;;;;;;18.02;9.13;;;;;;;13.44;100.00;100274.78;4866561;29;20052;-80
2023/05/17 05:46:14;;;;;;;20.15;8.98;;;;;;;13.64;100.00;100267.09;4865315;29;20044;-79
2023/05/17 05:48:59;;;;;;;18.75;9.00;;;;;;;13.77;100.00;100274.38;4867343;29;20105;-80
2023/05/17 05:51:43;;;;;;;23.80;9.32;;;;;;;13.81;100.00;100270.38;4869796;29;20043;-80
2023/05/17 05:54:27;;;;;;;18.98;9.68;;;;;;;14.01;100.00;100280.34;4868229;29;21196;-80
2023/05/17 05:57:11;;;;;;;22.35;10.27;;;;;;;13.93;100.00;100283.91;4863235;29;20080;-80
2023/05/17 05:59:55;;;;;;;26.83;10.23;;;;;;;13.89;100.00;100273.88;4863446;29;20049;-80
2023/05/17 06:02:39;;;;;;;23.20;9.63;;;;;;;13.83;100.00;100297.38;4870991;29;20048;-80
2023/05/17 06:05:23;;;;;;;24.00;10.88;;;;;;;14.16;100.00;100309.31;4864813;29;20064;-79
2023/05/17 06:08:07;;;;;;;20.13;9.48;;;;;;;14.15;100.00;100302.41;4868175;29;20079;-80
2023/05/17 06:10:52;;;;;;;24.35;10.38;;;;;;;14.20;100.00;100312.41;4866360;29;20052;-80
2023/05/17 06:13:36;;;;;;;19.00;9.13;;;;;;;14.23;100.00;100325.25;4862920;29;20044;-79
2023/05/17 06:16:20;;;;;;;19.90;8.60;;;;;;;14.32;100.00;100313.53;4866116;29;20049;-81
2023/05/17 06:19:05;;;;;;;24.35;9.52;;;;;;;14.57;100.00;100315.84;4869925;29;20388;-80
2023/05/17 06:21:49;;;;;;;19.02;9.00;;;;;;;14.70;100.00;100323.88;4865876;29;20074;-81
2023/05/17 06:24:33;;;;;;;19.88;8.77;;;;;;;15.08;100.00;100314.00;4869212;29;20052;-81
2023/05/17 06:27:17;;;;;;;16.90;8.48;;;;;;;15.15;100.00;100328.13;4867774;29;20088;-80
2023/05/17 06:30:03;;;;;;;17.70;8.75;;;;;;;15.08;100.00;100324.59;4865067;29;20063;-79
2023/05/17 06:32:47;;;;;;;19.85;8.63;;;;;;;15.23;100.00;100325.31;4865487;29;20044;-78
2023/05/17 06:35:31;;;;;;;22.25;8.32;;;;;;;15.46;100.00;100321.59;4865611;29;20048;-80
2023/05/17 06:38:14;;;;;;;18.05;8.68;;;;;;;15.70;100.00;100327.41;4864599;29;20109;-80
2023/05/17 06:40:59;;;;;;;16.25;8.23;;;;;;;15.97;100.00;100323.06;4869081;29;20060;-81
2023/05/17 06:43:42;;;;;;;16.08;8.02;;;;;;;16.26;100.00;100331.72;4865738;29;20121;-80
2023/05/17 06:46:26;;;;;;;17.63;8.30;;;;;;;16.29;100.00;100333.13;4867006;29;20048;-78
2023/05/17 06:49:10;;;;;;;20.58;8.60;;;;;;;16.30;100.00;100321.53;4864808;29;20136;-79
2023/05/17 06:52:01;;;;;;;21.05;8.85;;;;;;;16.35;100.00;100328.88;4864623;29;20109;-79
2023/05/17 06:54:45;;;;;;;14.30;6.95;;;;;;;16.33;100.00;100334.38;4864964;29;20075;-79
2023/05/17 06:57:29;;;;;;;16.10;8.70;;;;;;;16.03;100.00;100332.06;4866863;29;20116;-80
2023/05/17 07:00:14;;;;;;;17.55;8.63;;;;;;;16.76;100.00;100337.72;4866451;29;20139;-81
2023/05/17 07:02:58;;;;;;;15.45;8.70;;;;;;;16.75;100.00;100326.28;4864056;29;20123;-81
2023/05/17 07:05:42;;;;;;;18.15;8.57;;;;;;;16.47;100.00;100323.78;4864969;29;20044;-79
2023/05/17 07:08:26;;;;;;;16.60;7.78;;;;;;;16.06;100.00;100336.16;4866746;29;20113;-80
2023/05/17 07:11:11;;;;;;;16.00;8.27;;;;;;;16.28;100.00;100336.81;4862949;29;20468;-81
2023/05/17 07:13:55;;;;;;;18.33;8.18;;;;;;;16.34;100.00;100338.66;4870084;29;20067;-80
2023/05/17 07:16:39;;;;;;;15.70;8.95;;;;;;;16.29;100.00;100346.38;4865184;29;20097;-80
2023/05/17 07:19:25;;;;;;;23.17;9.68;;;;;;;16.54;100.00;100330.75;4869225;29;20427;-80
2023/05/17 07:22:10;;;;;;;18.42;8.27;;;;;;;16.23;100.00;100344.53;4869729;29;20072;-81
2023/05/17 07:24:54;;;;;;;13.75;7.40;;;;;;;16.46;100.00;100344.19;4869033;29;20052;-82
2023/05/17 07:27:38;;;;;;;14.40;7.10;;;;;;;16.85;100.00;100336.47;4873255;29;20105;-81
2023/05/17 07:30:22;;;;;;;14.57;6.82;;;;;;;17.39;98.74;100353.22;4875237;29;20053;-80
2023/05/17 07:33:06;;;;;;;11.85;6.50;;;;;;;17.84;97.39;100335.72;4870275;29;20096;-79
2023/05/17 07:35:50;;;;;;;14.23;7.05;;;;;;;17.78;97.29;100341.84;4870265;29;20045;-80
2023/05/17 07:38:35;;;;;;;15.50;6.85;;;;;;;17.74;97.57;100349.44;4866978;29;20045;-80
2023/05/17 07:41:21;;;;;;;17.77;7.55;;;;;;;17.65;99.11;100343.53;4869337;29;20520;-80
2023/05/17 07:44:05;;;;;;;18.70;7.50;;;;;;;17.36;97.66;100356.25;4869919;29;20060;-80
2023/05/17 07:46:49;;;;;;;17.40;7.40;;;;;;;17.65;96.72;100355.97;4868058;29;20044;-80
2023/05/17 07:49:33;;;;;;;14.80;6.90;;;;;;;17.69;95.25;100346.59;4872037;29;20052;-80
2023/05/17 07:52:17;;;;;;;14.98;6.03;;;;;;;17.89;93.08;100345.72;4873990;29;20052;-80
2023/05/17 07:55:02;;;;;;;13.85;7.40;;;;;;;17.85;93.10;100346.09;4865541;29;20052;-79
2023/05/17 07:57:47;;;;;;;15.10;7.53;;;;;;;17.97;94.42;100359.53;4869547;29;20491;-80
2023/05/17 08:00:32;;;;;;;11.30;6.35;;;;;;;17.48;93.98;100350.31;4868237;29;20079;-80
2023/05/17 08:03:16;;;;;;;16.90;6.63;;;;;;;16.95;94.78;100350.16;4872362;29;20592;-80
2023/05/17 08:05:59;;;;;;;17.35;6.47;;;;;;;18.40;92.41;100358.13;4873139;29;20048;-80
2023/05/17 08:08:44;;;;;;;11.57;6.13;;;;;;;18.72;89.69;100364.50;4867906;29;20129;-80
2023/05/17 08:11:27;;;;;;;10.70;6.60;;;;;;;18.63;87.64;100361.28;4872768;29;20560;-79
2023/05/17 08:14:13;;;;;;;13.10;5.95;;;;;;;18.19;86.96;100358.47;4871148;29;20044;-79
2023/05/17 08:16:57;;;;;;;14.63;5.75;;;;;;;18.01;87.32;100351.97;4866577;29;20048;-79
2023/05/17 08:19:41;;;;;;;10.10;5.63;;;;;;;17.73;86.82;100361.09;4871307;29;20404;-80
2023/05/17 08:22:26;;;;;;;11.70;5.80;;;;;;;18.15;87.54;100359.91;4863377;29;20065;-82
2023/05/17 08:25:10;;;;;;;15.65;5.97;;;;;;;18.77;85.26;100362.00;4868485;29;20428;-81
2023/05/17 08:27:54;;;;;;;10.30;6.25;;;;;;;19.24;84.02;100369.63;4871505;29;20096;-80
2023/05/17 08:30:38;;;;;;;15.45;6.15;;;;;;;18.94;83.14;100363.09;4867564;29;20052;-81
2023/05/17 08:33:24;;;;;;;13.48;6.20;;;;;;;18.42;85.28;100374.69;4872994;29;20056;-80
2023/05/17 08:36:08;;;;;;;14.00;5.60;;;;;;;18.19;85.16;100372.56;4869393;29;20080;-81
2023/05/17 08:38:52;;;;;;;11.88;6.07;;;;;;;18.81;83.84;100365.84;4863431;29;20089;-81
2023/05/17 08:41:37;;;;;;;11.27;5.15;;;;;;;18.90;83.54;100374.38;4871348;29;20060;-80
2023/05/17 08:44:22;;;;;;;12.00;5.63;;;;;;;18.55;83.39;100363.16;4869538;29;20081;-80
2023/05/17 08:47:10;;;;;;;12.70;6.35;;;;;;;18.73;83.30;100372.22;4867132;29;20535;-81
2023/05/17 08:49:59;;;;;;;14.18;5.80;;;;;;;18.48;83.43;100369.56;4869609;29;20052;-81
2023/05/17 08:52:45;;;;;;;11.63;5.88;;;;;;;18.98;83.44;100364.28;4867635;29;20391;-80
2023/05/17 08:55:31;;;;;;;12.63;6.13;;;;;;;18.81;82.76;100368.50;4866920;29;20105;-80
2023/05/17 08:58:20;;;;;;;12.57;6.47;;;;;;;18.39;82.18;100359.16;4868714;29;20408;-80
2023/05/17 09:01:07;;;;;;;8.93;5.60;;;;;;;18.63;79.44;100361.28;4872904;29;20136;-80
2023/05/17 09:03:51;;;;;;;11.57;6.18;;;;;;;19.01;79.33;100356.91;4868239;29;20121;-79
2023/05/17 09:06:36;;;;;;;16.75;7.63;;;;;;;18.98;77.22;100366.13;4866026;29;20048;-80
2023/05/17 09:09:20;;;;;;;11.40;6.20;;;;;;;18.73;77.93;100345.63;4868502;29;20050;-80
2023/05/17 09:12:05;;;;;;;8.27;4.90;;;;;;;18.97;76.54;100357.31;4865419;29;20093;-80
2023/05/17 09:14:49;;;;;;;11.32;5.63;;;;;;;18.22;77.78;100350.06;4872914;29;20038;-80
2023/05/17 09:17:34;;;;;;;9.35;5.35;;;;;;;18.19;79.26;100364.59;4868551;29;20495;-80
2023/05/17 09:20:23;;;;;;;7.22;4.97;;;;;;;18.69;78.52;100366.56;4868113;29;20048;-80
2023/05/17 09:23:12;;;;;;;9.40;5.40;;;;;;;19.11;77.08;100362.56;4867220;29;20100;-80
2023/05/17 09:26:03;;;;;;;10.48;5.38;;;;;;;19.50;75.72;100355.22;4872178;29;20044;-80
2023/05/17 09:28:47;;;;;;;12.23;5.85;;;;;;;19.10;73.97;100347.63;4867288;29;20060;-80
2023/05/17 09:31:32;;;;;;;8.07;5.22;;;;;;;19.17;73.21;100358.22;4867542;29;20138;-80
2023/05/17 09:34:18;;;;;;;8.13;5.20;;;;;;;19.95;73.62;100358.63;4869652;29;20040;-80
2023/05/17 09:37:03;;;;;;;9.90;5.32;;;;;;;18.96;73.32;100361.00;4870289;29;20052;-81
2023/05/17 09:39:47;;;;;;;7.57;6.05;;;;;;;19.44;73.11;100374.72;4867223;29;20076;-80
2023/05/17 09:42:35;;;;;;;11.10;5.80;;;;;;;19.91;73.09;100365.41;4869598;29;20040;-81
2023/05/17 09:45:23;;;;;;;12.10;5.45;;;;;;;19.60;73.91;100364.53;4867296;29;20071;-80
2023/05/17 09:48:17;;;;;;;9.40;5.78;;;;;;;20.12;72.48;100364.97;4869678;29;20078;-79
2023/05/17 09:51:02;;;;;;;10.70;5.57;;;;;;;18.54;74.21;100355.41;4867325;29;20518;-79
2023/05/17 09:53:52;;;;;;;9.70;5.82;;;;;;;18.42;75.01;100360.59;4872489;29;20080;-79
2023/05/17 09:56:37;;;;;;;9.90;5.78;;;;;;;19.30;74.77;100357.28;4868409;29;20039;-79
2023/05/17 09:59:25;;;;;;;7.85;4.93;;;;;;;19.57;72.71;100360.47;4867991;29;20107;-79
2023/05/17 10:02:16;;;;;;;8.93;5.50;;;;;;;19.96;72.94;100352.25;4865412;29;20052;-79
2023/05/17 10:05:06;;;;;;;10.50;5.18;;;;;;;20.79;69.36;100341.00;4866295;29;20108;-79
2023/05/17 10:07:53;;;;;;;7.72;4.90;;;;;;;21.16;69.76;100335.50;4873883;29;20089;-80
2023/05/17 10:10:38;;;;;;;8.80;5.15;;;;;;;21.93;67.14;100330.13;4862226;29;20064;-79
2023/05/17 10:13:29;;;;;;;8.32;4.60;;;;;;;22.88;64.46;100318.91;4866447;29;20051;-80
2023/05/17 10:16:13;;;;;;;9.55;5.30;;;;;;;22.81;66.80;100319.06;4871928;29;20504;-79
2023/05/17 10:18:58;;;;;;;9.77;4.97;;;;;;;22.20;63.96;100322.34;4867082;29;20518;-78
2023/05/17 10:21:43;;;;;;;7.05;5.47;;;;;;;21.78;66.35;100312.75;4876910;29;20040;-78
2023/05/17 10:24:29;;;;;;;7.43;4.85;;;;;;;21.75;63.79;100328.47;4873170;29;20572;-79
2023/05/17 10:27:14;;;;;;;9.48;5.10;;;;;;;20.26;64.47;100335.47;4862428;29;20437;-78
2023/05/17 10:29:59;;;;;;;8.05;4.70;;;;;;;20.08;63.97;100329.16;4867810;29;20097;-80
2023/05/17 10:32:44;;;;;;;7.30;4.80;;;;;;;20.04;65.39;100319.16;4868042;29;20131;-79
2023/05/17 10:35:29;;;;;;;7.75;5.10;;;;;;;19.67;65.25;100320.00;4868199;29;20123;-79
2023/05/17 10:38:13;;;;;;;9.93;5.13;;;;;;;19.78;63.76;100308.59;4867760;29;20124;-79
2023/05/17 10:40:59;;;;;;;8.93;5.05;;;;;;;19.48;64.94;100301.38;4868559;29;20048;-79
2023/05/17 10:43:44;;;;;;;6.00;4.72;;;;;;;19.78;65.29;100303.25;4868351;29;20060;-79
2023/05/17 10:46:29;;;;;;;8.38;5.30;;;;;;;20.71;60.32;100314.69;4875888;29;20060;-79
2023/05/17 10:49:16;;;;;;;7.10;4.38;;;;;;;20.68;60.60;100316.78;4872920;29;20478;-79
2023/05/17 10:52:22;;;;;;;5.85;4.25;;;;;;;21.91;59.60;100311.69;4873638;29;20041;-79
2023/05/17 10:55:07;;;;;;;10.25;5.30;;;;;;;22.21;57.97;100299.09;4873979;29;20087;-80
2023/05/17 10:58:21;;;;;;;8.98;5.53;;;;;;;22.71;58.86;100315.44;4873953;29;20044;-80
2023/05/17 11:01:06;;;;;;;7.40;5.05;;;;;;;22.45;59.33;100310.44;4866821;29;20044;-80
2023/05/17 11:03:54;;;;;;;8.57;5.88;;;;;;;20.98;60.71;100315.88;4873360;29;20514;-79
2023/05/17 11:06:39;;;;;;;8.15;5.22;;;;;;;20.20;62.79;100315.03;4871575;29;20048;-80
2023/05/17 11:09:24;;;;;;;10.13;5.55;;;;;;;20.19;62.56;100324.06;4876510;29;20117;-78
2023/05/17 11:12:10;;;;;;;7.88;5.45;;;;;;;19.52;63.95;100321.19;4873659;29;20105;-80
2023/05/17 11:14:55;;;;;;;14.07;5.95;;;;;;;19.48;65.25;100317.34;4867832;29;20082;-80
2023/05/17 11:17:42;;;;;;;10.85;5.72;;;;;;;19.85;64.26;100319.16;4871986;29;20041;-78
2023/05/17 11:20:26;;;;;;;8.57;5.75;;;;;;;20.71;63.25;100320.81;4867772;29;20241;-80
2023/05/17 11:23:15;;;;;;;8.90;5.18;;;;;;;21.14;64.73;100324.25;4870704;29;20052;-79
2023/05/17 11:26:21;;;;;;;7.97;5.05;;;;;;;21.68;60.50;100312.56;4868865;29;20047;-79
2023/05/17 11:29:09;;;;;;;9.35;5.25;;;;;;;22.69;61.35;100315.66;4870576;29;20118;-81
2023/05/17 11:31:53;;;;;;;8.65;4.95;;;;;;;23.01;59.05;100322.31;4872118;29;20109;-80
2023/05/17 11:34:37;;;;;;;7.07;5.35;;;;;;;23.19;59.86;100326.56;4869940;29;20056;-81
2023/05/17 11:37:26;;;;;;;8.05;5.10;;;;;;;23.25;57.82;100323.75;4873585;29;20672;-80
2023/05/17 11:40:14;;;;;;;11.10;5.97;;;;;;;23.33;59.11;100325.19;4871005;29;20047;-80
2023/05/17 11:43:19;;;;;;;10.43;5.70;;;;;;;22.86;59.12;100326.38;4865507;29;20068;-81
2023/05/17 11:46:05;;;;;;;8.50;5.20;;;;;;;23.56;58.45;100328.69;4869586;29;20048;-81
2023/05/17 11:48:52;;;;;;;9.95;5.20;;;;;;;22.97;57.88;100328.13;4866864;29;20064;-80
2023/05/17 11:51:37;;;;;;;6.18;5.20;;;;;;;23.65;57.04;100319.13;4871146;29;20106;-80
2023/05/17 11:54:23;;;;;;;7.68;4.90;;;;;;;22.75;57.21;100321.91;4872357;29;20052;-80
2023/05/17 11:57:08;;;;;;;6.20;4.93;;;;;;;22.54;56.41;100318.91;4868094;29;20516;-80
2023/05/17 12:00:01;;;;;;;8.10;4.72;;;;;;;22.05;56.43;100320.22;4869978;29;20045;-80
2023/05/17 12:02:45;;;;;;;7.05;4.82;;;;;;;23.07;57.08;100321.31;4884546;29;21024;-80
2023/05/17 12:05:29;;;;;;;7.55;4.90;;;;;;;23.57;55.54;100314.22;4872743;29;20052;-82
2023/05/17 12:08:17;;;;;;;;;;;;;;;23.37;54.98;100315.59;4868852;29;20101;-81
2023/05/17 12:11:02;;;;;;;6.55;4.78;;;;;;;23.07;53.77;100322.13;4870627;29;19935;-80
2023/05/17 12:13:47;;;;;;;5.00;4.40;;;;;;;22.89;53.32;100323.22;4882164;29;20044;-79
2023/05/17 12:16:35;;;;;;;7.47;4.68;;;;;;;23.39;52.81;100318.03;4866316;29;20404;-79
2023/05/17 12:19:21;;;;;;;8.13;5.20;;;;;;;23.46;52.22;100302.56;4868433;29;20510;-79
2023/05/17 12:22:07;;;;;;;6.53;4.95;;;;;;;24.67;53.19;100312.34;4869146;29;20105;-79
2023/05/17 12:24:51;;;;;;;5.72;4.72;;;;;;;23.62;51.92;100311.59;4874909;29;20117;-79
2023/05/17 12:27:35;;;;;;;6.90;4.72;;;;;;;24.24;50.81;100308.78;4867617;29;20170;-79
2023/05/17 12:30:19;;;;;;;6.53;4.28;;;;;;;25.03;48.48;100305.59;4863934;29;20064;-79
2023/05/17 12:33:04;;;;;;;9.48;4.85;;;;;;;23.78;50.91;100304.56;4864196;29;20089;-79
2023/05/17 12:35:48;;;;;;;6.50;5.00;;;;;;;24.58;50.76;100305.00;4868098;29;20495;-78